sensor_id;sensor_type;location;lat;lon;timestamp;P1;durP1;ratioP1;P2;durP2;ratioP2
48987;SDS011;34799;51.440;-2.534;2022-11-20T00:01:03;9.43;;;2.88;;
48987;SDS011;34799;51.440;-2.534;2022-11-20T00:03:35;9.90;;;3.28;;
48987;SDS011;34799;51.440;-2.534;2022-11-20T00:06:04;10.30;;;2.83;;
48987;SDS011;34799;51.440;-2.534;2022-11-20T00:08:32;6.18;;;2.90;;
48987;SDS011;34799;51.440;-2.534;2022-11-20T00:11:23;7.13;;;2.72;;
48987;SDS011;34799;51.440;-2.534;2022-11-20T00:13:51;7.47;;;2.55;;
48987;SDS011;34799;51.440;-2.534;2022-11-20T00:16:22;8.13;;;3.22;;
48987;SDS011;34799;51.440;-2.534;2022-11-20T00:18:50;8.80;;;2.22;;
48987;SDS011;34799;51.440;-2.534;2022-11-20T00:21:24;7.38;;;2.70;;
48987;SDS011;34799;51.440;-2.534;2022-11-20T00:23:54;10.30;;;3.08;;
48987;SDS011;34799;51.440;-2.534;2022-11-20T00:26:24;7.15;;;2.28;;
48987;SDS011;34799;51.440;-2.534;2022-11-20T00:28:52;5.72;;;2.38;;
48987;SDS011;34799;51.440;-2.534;2022-11-20T00:31:23;5.80;;;2.75;;
48987;SDS011;34799;51.440;-2.534;2022-11-20T00:33:50;9.40;;;2.78;;
48987;SDS011;34799;51.440;-2.534;2022-11-20T00:36:19;5.72;;;2.38;;
48987;SDS011;34799;51.440;-2.534;2022-11-20T00:38:52;7.85;;;2.90;;
48987;SDS011;34799;51.440;-2.534;2022-11-20T00:41:20;8.07;;;3.08;;
48987;SDS011;34799;51.440;-2.534;2022-11-20T00:43:47;6.30;;;2.22;;
48987;SDS011;34799;51.440;-2.534;2022-11-20T00:46:18;8.68;;;3.05;;
48987;SDS011;34799;51.440;-2.534;2022-11-20T00:48:46;12.40;;;3.10;;
48987;SDS011;34799;51.440;-2.534;2022-11-20T00:51:15;8.82;;;2.70;;
48987;SDS011;34799;51.440;-2.534;2022-11-20T00:53:45;8.60;;;2.70;;
48987;SDS011;34799;51.440;-2.534;2022-11-20T00:56:13;7.90;;;2.53;;
48987;SDS011;34799;51.440;-2.534;2022-11-20T00:58:42;7.82;;;2.88;;
48987;SDS011;34799;51.440;-2.534;2022-11-20T01:01:12;6.60;;;3.05;;
48987;SDS011;34799;51.440;-2.534;2022-11-20T01:03:41;9.13;;;3.35;;
48987;SDS011;34799;51.440;-2.534;2022-11-20T01:06:20;9.45;;;3.05;;
48987;SDS011;34799;51.440;-2.534;2022-11-20T01:08:49;6.40;;;2.55;;
48987;SDS011;34799;51.440;-2.534;2022-11-20T01:11:18;5.95;;;3.10;;
48987;SDS011;34799;51.440;-2.534;2022-11-20T01:13:50;6.25;;;3.13;;
48987;SDS011;34799;51.440;-2.534;2022-11-20T01:18:48;6.95;;;3.58;;
48987;SDS011;34799;51.440;-2.534;2022-11-20T01:21:18;6.65;;;3.22;;
48987;SDS011;34799;51.440;-2.534;2022-11-20T01:23:48;5.20;;;2.90;;
48987;SDS011;34799;51.440;-2.534;2022-11-20T01:26:17;5.88;;;3.80;;
48987;SDS011;34799;51.440;-2.534;2022-11-20T01:28:47;8.88;;;3.03;;
48987;SDS011;34799;51.440;-2.534;2022-11-20T01:31:16;7.05;;;3.67;;
48987;SDS011;34799;51.440;-2.534;2022-11-20T01:33:46;10.20;;;4.07;;
48987;SDS011;34799;51.440;-2.534;2022-11-20T01:36:16;6.30;;;3.47;;
48987;SDS011;34799;51.440;-2.534;2022-11-20T01:38:43;8.40;;;3.53;;
48987;SDS011;34799;51.440;-2.534;2022-11-20T01:41:11;8.30;;;3.08;;
48987;SDS011;34799;51.440;-2.534;2022-11-20T01:43:58;6.38;;;2.90;;
48987;SDS011;34799;51.440;-2.534;2022-11-20T01:46:27;4.93;;;2.92;;
48987;SDS011;34799;51.440;-2.534;2022-11-20T01:48:57;9.20;;;2.90;;
48987;SDS011;34799;51.440;-2.534;2022-11-20T01:51:38;8.27;;;2.78;;
48987;SDS011;34799;51.440;-2.534;2022-11-20T01:54:13;6.95;;;2.70;;
48987;SDS011;34799;51.440;-2.534;2022-11-20T01:56:48;9.75;;;3.42;;
48987;SDS011;34799;51.440;-2.534;2022-11-20T01:59:21;7.53;;;3.03;;
48987;SDS011;34799;51.440;-2.534;2022-11-20T02:01:50;5.97;;;2.80;;
48987;SDS011;34799;51.440;-2.534;2022-11-20T02:04:18;6.90;;;3.28;;
48987;SDS011;34799;51.440;-2.534;2022-11-20T02:06:48;5.30;;;2.50;;
48987;SDS011;34799;51.440;-2.534;2022-11-20T02:09:20;5.82;;;2.75;;
48987;SDS011;34799;51.440;-2.534;2022-11-20T02:11:48;4.82;;;2.50;;
48987;SDS011;34799;51.440;-2.534;2022-11-20T02:14:15;5.13;;;2.55;;
48987;SDS011;34799;51.440;-2.534;2022-11-20T02:16:47;4.90;;;2.65;;
48987;SDS011;34799;51.440;-2.534;2022-11-20T02:19:24;4.03;;;1.90;;
48987;SDS011;34799;51.440;-2.534;2022-11-20T02:22:08;5.47;;;2.33;;
48987;SDS011;34799;51.440;-2.534;2022-11-20T02:24:45;3.42;;;1.92;;
48987;SDS011;34799;51.440;-2.534;2022-11-20T02:27:15;5.07;;;2.00;;
48987;SDS011;34799;51.440;-2.534;2022-11-20T02:29:55;4.50;;;1.92;;
48987;SDS011;34799;51.440;-2.534;2022-11-20T02:32:30;2.92;;;1.83;;
48987;SDS011;34799;51.440;-2.534;2022-11-20T02:35:35;4.07;;;2.17;;
48987;SDS011;34799;51.440;-2.534;2022-11-20T02:37:54;4.07;;;1.88;;
48987;SDS011;34799;51.440;-2.534;2022-11-20T02:40:24;3.90;;;1.83;;
48987;SDS011;34799;51.440;-2.534;2022-11-20T02:42:51;3.78;;;1.80;;
48987;SDS011;34799;51.440;-2.534;2022-11-20T02:45:20;2.55;;;1.58;;
48987;SDS011;34799;51.440;-2.534;2022-11-20T02:47:49;3.90;;;2.03;;
48987;SDS011;34799;51.440;-2.534;2022-11-20T02:50:16;3.28;;;1.52;;
48987;SDS011;34799;51.440;-2.534;2022-11-20T02:52:43;2.92;;;1.77;;
48987;SDS011;34799;51.440;-2.534;2022-11-20T02:55:10;3.58;;;2.05;;
48987;SDS011;34799;51.440;-2.534;2022-11-20T02:57:38;3.92;;;1.90;;
48987;SDS011;34799;51.440;-2.534;2022-11-20T03:00:06;2.30;;;1.67;;
48987;SDS011;34799;51.440;-2.534;2022-11-20T03:02:33;2.72;;;1.38;;
48987;SDS011;34799;51.440;-2.534;2022-11-20T03:05:00;3.70;;;2.40;;
48987;SDS011;34799;51.440;-2.534;2022-11-20T03:07:27;3.88;;;1.50;;
48987;SDS011;34799;51.440;-2.534;2022-11-20T03:09:54;3.83;;;1.70;;
48987;SDS011;34799;51.440;-2.534;2022-11-20T03:12:23;2.88;;;1.40;;
48987;SDS011;34799;51.440;-2.534;2022-11-20T03:14:50;1.98;;;1.30;;
48987;SDS011;34799;51.440;-2.534;2022-11-20T03:17:18;2.50;;;1.60;;
48987;SDS011;34799;51.440;-2.534;2022-11-20T03:19:45;3.03;;;1.40;;
48987;SDS011;34799;51.440;-2.534;2022-11-20T03:22:12;1.42;;;1.02;;
48987;SDS011;34799;51.440;-2.534;2022-11-20T03:24:44;2.25;;;1.10;;
48987;SDS011;34799;51.440;-2.534;2022-11-20T03:27:21;3.03;;;1.20;;
48987;SDS011;34799;51.440;-2.534;2022-11-20T03:29:50;2.42;;;1.33;;
48987;SDS011;34799;51.440;-2.534;2022-11-20T03:32:26;2.22;;;1.25;;
48987;SDS011;34799;51.440;-2.534;2022-11-20T03:34:56;1.77;;;1.00;;
48987;SDS011;34799;51.440;-2.534;2022-11-20T03:37:24;1.80;;;0.93;;
48987;SDS011;34799;51.440;-2.534;2022-11-20T03:39:53;3.38;;;1.10;;
48987;SDS011;34799;51.440;-2.534;2022-11-20T03:42:22;2.88;;;0.90;;
48987;SDS011;34799;51.440;-2.534;2022-11-20T03:45:13;1.92;;;0.90;;
48987;SDS011;34799;51.440;-2.534;2022-11-20T03:47:48;2.38;;;1.13;;
48987;SDS011;34799;51.440;-2.534;2022-11-20T03:50:16;2.10;;;0.73;;
48987;SDS011;34799;51.440;-2.534;2022-11-20T03:52:48;2.70;;;1.02;;
48987;SDS011;34799;51.440;-2.534;2022-11-20T03:55:16;2.35;;;0.90;;
48987;SDS011;34799;51.440;-2.534;2022-11-20T03:57:55;2.30;;;0.70;;
48987;SDS011;34799;51.440;-2.534;2022-11-20T04:00:24;2.80;;;0.80;;
48987;SDS011;34799;51.440;-2.534;2022-11-20T04:03:01;1.27;;;0.77;;
48987;SDS011;34799;51.440;-2.534;2022-11-20T04:05:33;3.03;;;1.00;;
48987;SDS011;34799;51.440;-2.534;2022-11-20T04:08:01;3.38;;;1.00;;
48987;SDS011;34799;51.440;-2.534;2022-11-20T04:10:37;3.00;;;0.93;;
48987;SDS011;34799;51.440;-2.534;2022-11-20T04:13:06;2.53;;;1.13;;
48987;SDS011;34799;51.440;-2.534;2022-11-20T04:15:41;1.63;;;0.88;;
48987;SDS011;34799;51.440;-2.534;2022-11-20T04:18:10;1.88;;;0.90;;
48987;SDS011;34799;51.440;-2.534;2022-11-20T04:20:44;1.13;;;0.65;;
48987;SDS011;34799;51.440;-2.534;2022-11-20T04:23:12;1.92;;;0.70;;
48987;SDS011;34799;51.440;-2.534;2022-11-20T04:25:54;2.42;;;1.17;;
48987;SDS011;34799;51.440;-2.534;2022-11-20T04:28:34;1.20;;;0.70;;
48987;SDS011;34799;51.440;-2.534;2022-11-20T04:31:05;1.35;;;0.57;;
48987;SDS011;34799;51.440;-2.534;2022-11-20T04:33:39;1.48;;;0.28;;
48987;SDS011;34799;51.440;-2.534;2022-11-20T04:36:12;1.30;;;0.20;;
48987;SDS011;34799;51.440;-2.534;2022-11-20T04:38:46;1.13;;;0.13;;
48987;SDS011;34799;51.440;-2.534;2022-11-20T04:41:28;0.22;;;0.13;;
48987;SDS011;34799;51.440;-2.534;2022-11-20T04:44:05;3.17;;;0.52;;
48987;SDS011;34799;51.440;-2.534;2022-11-20T04:46:40;1.52;;;0.10;;
48987;SDS011;34799;51.440;-2.534;2022-11-20T04:49:12;4.57;;;0.10;;
48987;SDS011;34799;51.440;-2.534;2022-11-20T04:51:43;3.70;;;0.60;;
48987;SDS011;34799;51.440;-2.534;2022-11-20T04:54:20;1.23;;;0.30;;
48987;SDS011;34799;51.440;-2.534;2022-11-20T04:56:50;3.78;;;0.22;;
48987;SDS011;34799;51.440;-2.534;2022-11-20T04:59:22;0.30;;;0.10;;
48987;SDS011;34799;51.440;-2.534;2022-11-20T05:01:56;0.82;;;0.22;;
48987;SDS011;34799;51.440;-2.534;2022-11-20T05:04:24;1.67;;;0.10;;
48987;SDS011;34799;51.440;-2.534;2022-11-20T05:06:57;2.90;;;0.20;;
48987;SDS011;34799;51.440;-2.534;2022-11-20T05:09:29;1.45;;;0.20;;
48987;SDS011;34799;51.440;-2.534;2022-11-20T05:11:57;3.03;;;0.50;;
48987;SDS011;34799;51.440;-2.534;2022-11-20T05:14:26;2.08;;;0.75;;
48987;SDS011;34799;51.440;-2.534;2022-11-20T05:16:57;1.00;;;0.30;;
48987;SDS011;34799;51.440;-2.534;2022-11-20T05:19:28;5.05;;;0.32;;
48987;SDS011;34799;51.440;-2.534;2022-11-20T05:22:03;3.17;;;0.45;;
48987;SDS011;34799;51.440;-2.534;2022-11-20T05:24:37;3.15;;;0.30;;
48987;SDS011;34799;51.440;-2.534;2022-11-20T05:27:08;3.90;;;0.45;;
48987;SDS011;34799;51.440;-2.534;2022-11-20T05:29:38;5.68;;;0.60;;
48987;SDS011;34799;51.440;-2.534;2022-11-20T05:32:09;4.57;;;0.60;;
48987;SDS011;34799;51.440;-2.534;2022-11-20T05:34:41;3.28;;;0.40;;
48987;SDS011;34799;51.440;-2.534;2022-11-20T05:37:11;2.53;;;0.55;;
48987;SDS011;34799;51.440;-2.534;2022-11-20T05:39:44;2.25;;;0.40;;
48987;SDS011;34799;51.440;-2.534;2022-11-20T05:42:13;4.07;;;0.52;;
48987;SDS011;34799;51.440;-2.534;2022-11-20T05:45:03;2.40;;;0.43;;
48987;SDS011;34799;51.440;-2.534;2022-11-20T05:47:38;2.83;;;0.60;;
48987;SDS011;34799;51.440;-2.534;2022-11-20T05:50:10;5.13;;;0.50;;
48987;SDS011;34799;51.440;-2.534;2022-11-20T05:52:49;4.30;;;0.50;;
48987;SDS011;34799;51.440;-2.534;2022-11-20T05:55:17;3.88;;;0.50;;
48987;SDS011;34799;51.440;-2.534;2022-11-20T05:57:51;6.70;;;1.02;;
48987;SDS011;34799;51.440;-2.534;2022-11-20T06:00:21;7.65;;;1.30;;
48987;SDS011;34799;51.440;-2.534;2022-11-20T06:02:49;11.57;;;1.77;;
48987;SDS011;34799;51.440;-2.534;2022-11-20T06:05:17;7.65;;;0.88;;
48987;SDS011;34799;51.440;-2.534;2022-11-20T06:07:44;7.25;;;0.75;;
48987;SDS011;34799;51.440;-2.534;2022-11-20T06:10:15;9.15;;;1.13;;
48987;SDS011;34799;51.440;-2.534;2022-11-20T06:12:45;12.20;;;1.52;;
48987;SDS011;34799;51.440;-2.534;2022-11-20T06:15:14;8.02;;;1.63;;
48987;SDS011;34799;51.440;-2.534;2022-11-20T06:17:41;5.65;;;0.88;;
48987;SDS011;34799;51.440;-2.534;2022-11-20T06:20:11;9.32;;;0.70;;
48987;SDS011;34799;51.440;-2.534;2022-11-20T06:22:40;10.05;;;2.05;;
48987;SDS011;34799;51.440;-2.534;2022-11-20T06:25:11;13.13;;;2.08;;
48987;SDS011;34799;51.440;-2.534;2022-11-20T06:27:42;12.52;;;1.05;;
48987;SDS011;34799;51.440;-2.534;2022-11-20T06:30:10;14.00;;;1.48;;
48987;SDS011;34799;51.440;-2.534;2022-11-20T06:32:40;7.82;;;0.85;;
48987;SDS011;34799;51.440;-2.534;2022-11-20T06:35:09;11.43;;;1.23;;
48987;SDS011;34799;51.440;-2.534;2022-11-20T06:37:37;13.88;;;1.23;;
48987;SDS011;34799;51.440;-2.534;2022-11-20T06:40:05;5.93;;;1.20;;
48987;SDS011;34799;51.440;-2.534;2022-11-20T06:42:34;7.95;;;1.65;;
48987;SDS011;34799;51.440;-2.534;2022-11-20T06:45:09;12.82;;;1.20;;
48987;SDS011;34799;51.440;-2.534;2022-11-20T06:47:39;7.55;;;1.23;;
48987;SDS011;34799;51.440;-2.534;2022-11-20T06:50:10;12.38;;;0.90;;
48987;SDS011;34799;51.440;-2.534;2022-11-20T06:52:43;11.68;;;1.10;;
48987;SDS011;34799;51.440;-2.534;2022-11-20T06:55:14;14.27;;;1.00;;
48987;SDS011;34799;51.440;-2.534;2022-11-20T06:57:45;12.60;;;1.27;;
48987;SDS011;34799;51.440;-2.534;2022-11-20T07:00:14;10.85;;;2.08;;
48987;SDS011;34799;51.440;-2.534;2022-11-20T07:02:42;8.77;;;1.40;;
48987;SDS011;34799;51.440;-2.534;2022-11-20T07:05:10;11.38;;;1.08;;
48987;SDS011;34799;51.440;-2.534;2022-11-20T07:07:38;11.90;;;1.25;;
48987;SDS011;34799;51.440;-2.534;2022-11-20T07:10:07;7.53;;;1.90;;
48987;SDS011;34799;51.440;-2.534;2022-11-20T07:12:36;10.38;;;1.60;;
48987;SDS011;34799;51.440;-2.534;2022-11-20T07:15:11;14.98;;;1.58;;
48987;SDS011;34799;51.440;-2.534;2022-11-20T07:17:42;9.68;;;1.95;;
48987;SDS011;34799;51.440;-2.534;2022-11-20T07:20:10;11.13;;;1.60;;
48987;SDS011;34799;51.440;-2.534;2022-11-20T07:22:39;8.50;;;1.67;;
48987;SDS011;34799;51.440;-2.534;2022-11-20T07:25:09;14.68;;;1.27;;
48987;SDS011;34799;51.440;-2.534;2022-11-20T07:27:38;12.77;;;1.63;;
48987;SDS011;34799;51.440;-2.534;2022-11-20T07:30:06;14.93;;;1.30;;
48987;SDS011;34799;51.440;-2.534;2022-11-20T07:32:39;14.73;;;1.70;;
48987;SDS011;34799;51.440;-2.534;2022-11-20T07:35:07;14.25;;;1.42;;
48987;SDS011;34799;51.440;-2.534;2022-11-20T07:37:40;12.80;;;1.17;;
48987;SDS011;34799;51.440;-2.534;2022-11-20T07:40:20;6.25;;;1.50;;
48987;SDS011;34799;51.440;-2.534;2022-11-20T07:42:50;11.23;;;1.17;;
48987;SDS011;34799;51.440;-2.534;2022-11-20T07:45:19;8.20;;;1.40;;
48987;SDS011;34799;51.440;-2.534;2022-11-20T07:47:51;11.90;;;2.38;;
48987;SDS011;34799;51.440;-2.534;2022-11-20T07:50:25;11.50;;;1.45;;
48987;SDS011;34799;51.440;-2.534;2022-11-20T07:52:52;11.65;;;1.58;;
48987;SDS011;34799;51.440;-2.534;2022-11-20T07:55:28;12.52;;;1.58;;
48987;SDS011;34799;51.440;-2.534;2022-11-20T07:58:03;11.45;;;1.95;;
48987;SDS011;34799;51.440;-2.534;2022-11-20T08:00:32;10.73;;;2.38;;
48987;SDS011;34799;51.440;-2.534;2022-11-20T08:05:37;10.95;;;1.77;;
48987;SDS011;34799;51.440;-2.534;2022-11-20T08:08:05;9.65;;;1.48;;
48987;SDS011;34799;51.440;-2.534;2022-11-20T08:10:34;8.68;;;1.20;;
48987;SDS011;34799;51.440;-2.534;2022-11-20T08:13:02;14.02;;;1.83;;
48987;SDS011;34799;51.440;-2.534;2022-11-20T08:15:49;16.38;;;1.85;;
48987;SDS011;34799;51.440;-2.534;2022-11-20T08:18:21;11.23;;;1.70;;
48987;SDS011;34799;51.440;-2.534;2022-11-20T08:20:56;18.08;;;1.42;;
48987;SDS011;34799;51.440;-2.534;2022-11-20T08:23:26;17.83;;;1.85;;
48987;SDS011;34799;51.440;-2.534;2022-11-20T08:25:56;13.57;;;2.33;;
48987;SDS011;34799;51.440;-2.534;2022-11-20T08:28:26;13.65;;;1.85;;
48987;SDS011;34799;51.440;-2.534;2022-11-20T08:31:00;20.70;;;2.30;;
48987;SDS011;34799;51.440;-2.534;2022-11-20T08:33:28;15.15;;;2.75;;
48987;SDS011;34799;51.440;-2.534;2022-11-20T08:36:01;25.13;;;2.83;;
48987;SDS011;34799;51.440;-2.534;2022-11-20T08:38:33;21.27;;;2.05;;
48987;SDS011;34799;51.440;-2.534;2022-11-20T08:41:03;23.17;;;2.50;;
48987;SDS011;34799;51.440;-2.534;2022-11-20T08:43:55;23.13;;;4.25;;
48987;SDS011;34799;51.440;-2.534;2022-11-20T08:46:32;18.15;;;2.80;;
48987;SDS011;34799;51.440;-2.534;2022-11-20T08:49:06;16.15;;;2.20;;
48987;SDS011;34799;51.440;-2.534;2022-11-20T08:51:36;25.33;;;3.42;;
48987;SDS011;34799;51.440;-2.534;2022-11-20T08:54:07;21.02;;;2.67;;
48987;SDS011;34799;51.440;-2.534;2022-11-20T08:56:48;22.67;;;3.33;;
48987;SDS011;34799;51.440;-2.534;2022-11-20T08:59:15;16.92;;;2.83;;
48987;SDS011;34799;51.440;-2.534;2022-11-20T09:01:59;15.90;;;1.90;;
48987;SDS011;34799;51.440;-2.534;2022-11-20T09:04:27;13.90;;;2.10;;
48987;SDS011;34799;51.440;-2.534;2022-11-20T09:07:05;21.80;;;2.75;;
48987;SDS011;34799;51.440;-2.534;2022-11-20T09:09:33;19.88;;;2.45;;
48987;SDS011;34799;51.440;-2.534;2022-11-20T09:12:06;14.00;;;1.98;;
48987;SDS011;34799;51.440;-2.534;2022-11-20T09:14:37;28.55;;;4.50;;
48987;SDS011;34799;51.440;-2.534;2022-11-20T09:17:09;19.80;;;2.38;;
48987;SDS011;34799;51.440;-2.534;2022-11-20T09:19:44;23.75;;;3.47;;
48987;SDS011;34799;51.440;-2.534;2022-11-20T09:22:13;17.73;;;2.13;;
48987;SDS011;34799;51.440;-2.534;2022-11-20T09:24:42;22.75;;;4.18;;
48987;SDS011;34799;51.440;-2.534;2022-11-20T09:27:13;25.08;;;2.80;;
48987;SDS011;34799;51.440;-2.534;2022-11-20T09:29:53;19.67;;;3.13;;
48987;SDS011;34799;51.440;-2.534;2022-11-20T09:32:21;15.65;;;2.30;;
48987;SDS011;34799;51.440;-2.534;2022-11-20T09:34:52;17.35;;;2.95;;
48987;SDS011;34799;51.440;-2.534;2022-11-20T09:37:23;21.05;;;3.47;;
48987;SDS011;34799;51.440;-2.534;2022-11-20T09:39:52;26.60;;;4.15;;
48987;SDS011;34799;51.440;-2.534;2022-11-20T09:45:10;19.65;;;2.70;;
48987;SDS011;34799;51.440;-2.534;2022-11-20T09:56:40;17.98;;;2.97;;
48987;SDS011;34799;51.440;-2.534;2022-11-20T09:59:15;19.85;;;3.10;;
48987;SDS011;34799;51.440;-2.534;2022-11-20T10:14:42;16.50;;;2.63;;
48987;SDS011;34799;51.440;-2.534;2022-11-20T10:29:44;20.60;;;3.10;;
48987;SDS011;34799;51.440;-2.534;2022-11-20T10:32:21;22.23;;;3.22;;
48987;SDS011;34799;51.440;-2.534;2022-11-20T10:35:28;18.00;;;2.13;;
48987;SDS011;34799;51.440;-2.534;2022-11-20T10:38:18;18.48;;;1.80;;
48987;SDS011;34799;51.440;-2.534;2022-11-20T10:40:56;18.25;;;1.65;;
48987;SDS011;34799;51.440;-2.534;2022-11-20T10:43:46;18.90;;;3.13;;
48987;SDS011;34799;51.440;-2.534;2022-11-20T10:46:17;14.52;;;2.30;;
48987;SDS011;34799;51.440;-2.534;2022-11-20T10:48:55;14.07;;;2.00;;
48987;SDS011;34799;51.440;-2.534;2022-11-20T10:51:44;17.33;;;1.73;;
48987;SDS011;34799;51.440;-2.534;2022-11-20T11:01:17;13.00;;;2.15;;
48987;SDS011;34799;51.440;-2.534;2022-11-20T11:04:02;13.15;;;2.00;;
48987;SDS011;34799;51.440;-2.534;2022-11-20T11:08:20;16.25;;;1.27;;
48987;SDS011;34799;51.440;-2.534;2022-11-20T11:11:02;16.75;;;1.63;;
48987;SDS011;34799;51.440;-2.534;2022-11-20T11:13:52;10.77;;;1.45;;
48987;SDS011;34799;51.440;-2.534;2022-11-20T11:19:39;14.87;;;2.30;;
48987;SDS011;34799;51.440;-2.534;2022-11-20T11:22:17;17.60;;;2.50;;
48987;SDS011;34799;51.440;-2.534;2022-11-20T11:24:52;16.08;;;1.88;;
48987;SDS011;34799;51.440;-2.534;2022-11-20T11:27:23;11.55;;;1.50;;
48987;SDS011;34799;51.440;-2.534;2022-11-20T11:30:16;15.93;;;1.45;;
48987;SDS011;34799;51.440;-2.534;2022-11-20T11:32:46;17.77;;;1.83;;
48987;SDS011;34799;51.440;-2.534;2022-11-20T11:35:22;16.92;;;1.77;;
48987;SDS011;34799;51.440;-2.534;2022-11-20T11:37:53;14.63;;;2.67;;
48987;SDS011;34799;51.440;-2.534;2022-11-20T11:46:33;17.67;;;2.53;;
48987;SDS011;34799;51.440;-2.534;2022-11-20T12:00:03;17.02;;;2.10;;
48987;SDS011;34799;51.440;-2.534;2022-11-20T12:06:06;16.38;;;1.80;;
48987;SDS011;34799;51.440;-2.534;2022-11-20T12:11:55;12.52;;;1.75;;
48987;SDS011;34799;51.440;-2.534;2022-11-20T12:14:34;19.67;;;1.88;;
48987;SDS011;34799;51.440;-2.534;2022-11-20T12:17:10;14.43;;;2.05;;
48987;SDS011;34799;51.440;-2.534;2022-11-20T12:19:39;14.77;;;2.30;;
48987;SDS011;34799;51.440;-2.534;2022-11-20T12:30:19;6.85;;;0.77;;
48987;SDS011;34799;51.440;-2.534;2022-11-20T12:41:43;8.10;;;1.05;;
48987;SDS011;34799;51.440;-2.534;2022-11-20T12:48:01;10.65;;;1.05;;
48987;SDS011;34799;51.440;-2.534;2022-11-20T12:59:21;14.27;;;2.13;;
48987;SDS011;34799;51.440;-2.534;2022-11-20T13:05:31;20.02;;;1.77;;
48987;SDS011;34799;51.440;-2.534;2022-11-20T13:08:11;7.03;;;0.73;;
48987;SDS011;34799;51.440;-2.534;2022-11-20T13:14:26;10.55;;;0.73;;
48987;SDS011;34799;51.440;-2.534;2022-11-20T13:20:21;8.90;;;0.70;;
48987;SDS011;34799;51.440;-2.534;2022-11-20T13:22:52;7.50;;;0.45;;
48987;SDS011;34799;51.440;-2.534;2022-11-20T13:25:38;7.88;;;0.95;;
48987;SDS011;34799;51.440;-2.534;2022-11-20T13:30:51;6.40;;;0.30;;
48987;SDS011;34799;51.440;-2.534;2022-11-20T13:33:32;6.60;;;0.50;;
48987;SDS011;34799;51.440;-2.534;2022-11-20T13:36:21;8.68;;;0.47;;
48987;SDS011;34799;51.440;-2.534;2022-11-20T13:39:04;6.38;;;0.30;;
48987;SDS011;34799;51.440;-2.534;2022-11-20T13:41:33;10.10;;;0.60;;
48987;SDS011;34799;51.440;-2.534;2022-11-20T13:44:46;5.70;;;0.45;;
48987;SDS011;34799;51.440;-2.534;2022-11-20T13:47:30;5.75;;;0.88;;
48987;SDS011;34799;51.440;-2.534;2022-11-20T13:50:19;6.72;;;0.35;;
48987;SDS011;34799;51.440;-2.534;2022-11-20T14:01:51;4.95;;;0.80;;
48987;SDS011;34799;51.440;-2.534;2022-11-20T14:04:25;6.95;;;1.05;;
48987;SDS011;34799;51.440;-2.534;2022-11-20T14:06:58;7.60;;;0.60;;
48987;SDS011;34799;51.440;-2.534;2022-11-20T14:09:29;5.60;;;0.73;;
48987;SDS011;34799;51.440;-2.534;2022-11-20T14:12:03;3.40;;;0.65;;
48987;SDS011;34799;51.440;-2.534;2022-11-20T14:14:48;5.05;;;0.40;;
48987;SDS011;34799;51.440;-2.534;2022-11-20T14:17:32;3.95;;;0.75;;
48987;SDS011;34799;51.440;-2.534;2022-11-20T14:20:06;3.28;;;0.30;;
48987;SDS011;34799;51.440;-2.534;2022-11-20T14:22:53;5.55;;;0.30;;
48987;SDS011;34799;51.440;-2.534;2022-11-20T14:25:25;5.45;;;0.38;;
48987;SDS011;34799;51.440;-2.534;2022-11-20T14:28:01;8.35;;;1.27;;
48987;SDS011;34799;51.440;-2.534;2022-11-20T14:30:49;3.13;;;0.30;;
48987;SDS011;34799;51.440;-2.534;2022-11-20T14:33:25;3.55;;;0.43;;
48987;SDS011;34799;51.440;-2.534;2022-11-20T14:35:57;4.85;;;0.40;;
48987;SDS011;34799;51.440;-2.534;2022-11-20T14:38:31;4.93;;;0.60;;
48987;SDS011;34799;51.440;-2.534;2022-11-20T14:43:59;12.25;;;1.00;;
48987;SDS011;34799;51.440;-2.534;2022-11-20T14:46:36;6.03;;;0.47;;
48987;SDS011;34799;51.440;-2.534;2022-11-20T14:49:13;12.75;;;1.45;;
48987;SDS011;34799;51.440;-2.534;2022-11-20T14:51:59;7.88;;;0.52;;
48987;SDS011;34799;51.440;-2.534;2022-11-20T14:54:50;3.75;;;0.50;;
48987;SDS011;34799;51.440;-2.534;2022-11-20T14:57:29;13.70;;;1.70;;
48987;SDS011;34799;51.440;-2.534;2022-11-20T15:02:58;12.13;;;1.00;;
48987;SDS011;34799;51.440;-2.534;2022-11-20T15:05:48;9.57;;;0.80;;
48987;SDS011;34799;51.440;-2.534;2022-11-20T15:08:20;7.80;;;0.77;;
48987;SDS011;34799;51.440;-2.534;2022-11-20T15:11:01;14.02;;;1.23;;
48987;SDS011;34799;51.440;-2.534;2022-11-20T15:13:34;6.38;;;0.90;;
48987;SDS011;34799;51.440;-2.534;2022-11-20T15:18:52;9.85;;;0.77;;
48987;SDS011;34799;51.440;-2.534;2022-11-20T15:31:15;8.00;;;1.90;;
48987;SDS011;34799;51.440;-2.534;2022-11-20T15:43:44;11.23;;;1.38;;
48987;SDS011;34799;51.440;-2.534;2022-11-20T15:46:13;7.32;;;0.88;;
48987;SDS011;34799;51.440;-2.534;2022-11-20T15:48:44;6.55;;;1.10;;
48987;SDS011;34799;51.440;-2.534;2022-11-20T15:51:21;7.35;;;1.05;;
48987;SDS011;34799;51.440;-2.534;2022-11-20T15:53:50;4.00;;;0.40;;
48987;SDS011;34799;51.440;-2.534;2022-11-20T15:56:17;7.25;;;1.40;;
48987;SDS011;34799;51.440;-2.534;2022-11-20T15:58:44;5.80;;;0.60;;
48987;SDS011;34799;51.440;-2.534;2022-11-20T16:01:15;3.75;;;1.20;;
48987;SDS011;34799;51.440;-2.534;2022-11-20T16:03:44;4.65;;;0.65;;
48987;SDS011;34799;51.440;-2.534;2022-11-20T16:06:12;4.05;;;0.45;;
48987;SDS011;34799;51.440;-2.534;2022-11-20T16:08:39;2.15;;;0.40;;
48987;SDS011;34799;51.440;-2.534;2022-11-20T16:11:06;6.53;;;0.65;;
48987;SDS011;34799;51.440;-2.534;2022-11-20T16:13:34;4.20;;;0.63;;
48987;SDS011;34799;51.440;-2.534;2022-11-20T16:16:26;5.68;;;0.85;;
48987;SDS011;34799;51.440;-2.534;2022-11-20T16:19:04;2.83;;;0.45;;
48987;SDS011;34799;51.440;-2.534;2022-11-20T16:21:31;5.28;;;0.70;;
48987;SDS011;34799;51.440;-2.534;2022-11-20T16:23:58;5.32;;;0.90;;
48987;SDS011;34799;51.440;-2.534;2022-11-20T16:26:26;4.28;;;0.30;;
48987;SDS011;34799;51.440;-2.534;2022-11-20T16:28:54;5.60;;;0.60;;
48987;SDS011;34799;51.440;-2.534;2022-11-20T16:31:22;2.10;;;0.30;;
48987;SDS011;34799;51.440;-2.534;2022-11-20T16:33:49;4.95;;;0.90;;
48987;SDS011;34799;51.440;-2.534;2022-11-20T16:36:22;7.35;;;0.80;;
48987;SDS011;34799;51.440;-2.534;2022-11-20T16:39:00;4.68;;;0.77;;
48987;SDS011;34799;51.440;-2.534;2022-11-20T16:41:31;8.63;;;0.70;;
48987;SDS011;34799;51.440;-2.534;2022-11-20T16:44:05;9.50;;;1.52;;
48987;SDS011;34799;51.440;-2.534;2022-11-20T16:46:34;7.75;;;0.95;;
48987;SDS011;34799;51.440;-2.534;2022-11-20T16:49:02;8.52;;;1.55;;
48987;SDS011;34799;51.440;-2.534;2022-11-20T16:51:34;7.97;;;1.33;;
48987;SDS011;34799;51.440;-2.534;2022-11-20T16:54:03;7.65;;;0.90;;
48987;SDS011;34799;51.440;-2.534;2022-11-20T16:56:32;7.18;;;1.40;;
48987;SDS011;34799;51.440;-2.534;2022-11-20T16:59:00;7.55;;;1.40;;
48987;SDS011;34799;51.440;-2.534;2022-11-20T17:01:28;5.68;;;1.52;;
48987;SDS011;34799;51.440;-2.534;2022-11-20T17:04:14;4.38;;;1.75;;
48987;SDS011;34799;51.440;-2.534;2022-11-20T17:06:43;8.98;;;1.10;;
48987;SDS011;34799;51.440;-2.534;2022-11-20T17:09:10;3.97;;;1.02;;
48987;SDS011;34799;51.440;-2.534;2022-11-20T17:11:38;7.88;;;0.90;;
48987;SDS011;34799;51.440;-2.534;2022-11-20T17:14:05;6.45;;;0.90;;
48987;SDS011;34799;51.440;-2.534;2022-11-20T17:16:33;4.10;;;0.82;;
48987;SDS011;34799;51.440;-2.534;2022-11-20T17:19:02;6.28;;;1.33;;
48987;SDS011;34799;51.440;-2.534;2022-11-20T17:21:31;8.02;;;0.70;;
48987;SDS011;34799;51.440;-2.534;2022-11-20T17:24:02;7.75;;;0.93;;
48987;SDS011;34799;51.440;-2.534;2022-11-20T17:26:31;7.05;;;1.00;;
48987;SDS011;34799;51.440;-2.534;2022-11-20T17:29:20;8.95;;;1.42;;
48987;SDS011;34799;51.440;-2.534;2022-11-20T17:31:49;9.48;;;2.00;;
48987;SDS011;34799;51.440;-2.534;2022-11-20T17:34:16;8.35;;;1.23;;
48987;SDS011;34799;51.440;-2.534;2022-11-20T17:36:44;6.25;;;1.13;;
48987;SDS011;34799;51.440;-2.534;2022-11-20T17:39:13;7.65;;;1.42;;
48987;SDS011;34799;51.440;-2.534;2022-11-20T17:41:41;7.93;;;0.80;;